Dimitrios — SX6749 — position and weather

sailwx.info

Track history (hours):
 
Tides and Currents Weather Stations Pressure Air Temp Water Temp Dewpoint Dewpoint Depression Visibility Wind Speed Wind Dir Waves Ship Positions

Dimitrios

Last reported at 2018-Jul-15 08:23 UTC. Time now 2018-Jul-19 14:51 UTC.
Position N 37°39' E 023°46'.

Length 75 m; draft 4.6 m.

Type: Cargo ship. MMSI: 237006500.

Date/timePositionNaut miles runAvg speedWind from/ knotsBaromVisibWave heightAir tempDewpointWater temp
2018-Jul-15 08:23N 37°39' E 023°46'3 7.8
2018-Jul-15 08:00N 37°40' E 023°42'4 7.8
2018-Jul-15 07:30N 37°43' E 023°40'4 8.2
2018-Jul-15 07:00N 37°47' E 023°38'4 8.2
2018-Jul-15 06:30N 37°51' E 023°36'4 8.3
2018-Jul-15 06:00N 37°55' E 023°35'3 6.6
2018-Jul-15 05:30N 37°58' E 023°33'4 7.2
2018-Jul-15 05:00N 38°01' E 023°32'1 2.6
2018-Jul-15 04:30N 38°02' E 023°31'0 0.0
2018-Jul-15 04:00N 38°02' E 023°31'0 0.0
2018-Jul-15 03:30N 38°02' E 023°31'0 0.0
2018-Jul-15 03:00N 38°02' E 023°31'0 0.0
2018-Jul-15 02:30N 38°02' E 023°31'0 0.0
2018-Jul-15 02:00N 38°02' E 023°31'0 0.0
2018-Jul-15 01:30N 38°02' E 023°31'0 0.0
2018-Jul-15 01:00N 38°02' E 023°31'0 0.0
2018-Jul-15 00:30N 38°02' E 023°31'0 0.0
2018-Jul-15 00:00N 38°02' E 023°31'0 0.0
2018-Jul-14 23:30N 38°02' E 023°31'0 0.0
2018-Jul-14 23:00N 38°02' E 023°31'0 0.0
2018-Jul-14 22:30N 38°02' E 023°31'0 0.0
2018-Jul-14 22:00N 38°02' E 023°31'0 0.0
2018-Jul-14 21:30N 38°02' E 023°31'0 0.0
2018-Jul-14 21:00N 38°02' E 023°31'0 0.0
2018-Jul-14 20:30N 38°02' E 023°31'0 0.0
2018-Jul-14 20:00N 38°02' E 023°31'0 0.0
2018-Jul-14 19:30N 38°02' E 023°31'0 0.0
2018-Jul-14 19:00N 38°02' E 023°31'0 0.0
2018-Jul-14 18:30N 38°02' E 023°31'0 0.0
2018-Jul-14 18:00N 38°02' E 023°31'0 0.0
2018-Jul-14 17:30N 38°02' E 023°31'0 0.0
2018-Jul-14 17:00N 38°02' E 023°31'0 0.0
2018-Jul-14 16:30N 38°02' E 023°31'0 0.0
2018-Jul-14 16:00N 38°02' E 023°31'0 0.0
2018-Jul-14 15:30N 38°02' E 023°31'0 0.0
2018-Jul-14 15:00N 38°02' E 023°31'0 0.0
2018-Jul-14 14:29N 38°02' E 023°31'0 0.0
2018-Jul-14 13:30N 38°02' E 023°31'0 0.0
2018-Jul-14 12:59N 38°02' E 023°31'0 0.0
2018-Jul-14 12:30N 38°02' E 023°31'0 0.9
2018-Jul-14 12:00N 38°02' E 023°32'3 5.4
2018-Jul-14 11:30N 38°02' E 023°35'0 0.3
2018-Jul-14 10:09N 38°02' E 023°35'0 0.0
2018-Jul-14 09:58N 38°02' E 023°35'0 0.0
2018-Jul-14 09:30N 38°02' E 023°35'0 0.0
2018-Jul-14 08:55N 38°02' E 023°35'0 0.0
2018-Jul-14 08:29N 38°02' E 023°35'0 0.0
2018-Jul-14 08:00N 38°02' E 023°35'0 0.0
2018-Jul-14 07:29N 38°02' E 023°35'0 0.0
2018-Jul-14 07:00N 38°02' E 023°35'0 0.0
2018-Jul-14 06:30N 38°02' E 023°35'0 0.0
2018-Jul-14 05:59N 38°02' E 023°35'0 0.0
2018-Jul-14 05:30N 38°02' E 023°35'0 0.0
2018-Jul-14 05:00N 38°02' E 023°35'0 0.0
2018-Jul-14 04:30N 38°02' E 023°35'0 0.0
2018-Jul-14 04:00N 38°02' E 023°35'0 0.0
2018-Jul-14 03:30N 38°02' E 023°35'0 0.0
2018-Jul-14 03:01N 38°02' E 023°35'0 0.0
2018-Jul-14 02:30N 38°02' E 023°35'0 0.0
2018-Jul-14 02:00N 38°02' E 023°35'0 0.0
2018-Jul-14 01:30N 38°02' E 023°35'0 0.0
2018-Jul-14 01:00N 38°02' E 023°35'0 0.0
2018-Jul-14 00:30N 38°02' E 023°35'0 0.0
2018-Jul-14 00:00N 38°02' E 023°35'0 0.0
2018-Jul-13 23:30N 38°02' E 023°35'0 0.0
2018-Jul-13 23:00N 38°02' E 023°35'0 0.0
2018-Jul-13 22:30N 38°02' E 023°35'0 0.0
2018-Jul-13 22:00N 38°02' E 023°35'0 0.0
2018-Jul-13 21:30N 38°02' E 023°35'0 0.0
2018-Jul-13 21:00N 38°02' E 023°35'0 0.0
2018-Jul-13 20:30N 38°02' E 023°35'0 0.0
2018-Jul-13 20:00N 38°02' E 023°35'0 0.0
2018-Jul-13 19:30N 38°02' E 023°35'0 0.0
2018-Jul-13 18:59N 38°02' E 023°35'0 0.0
2018-Jul-13 18:30N 38°02' E 023°35'0 0.0
2018-Jul-13 18:00N 38°02' E 023°35'0 0.0
2018-Jul-13 17:30N 38°02' E 023°35'0 0.0
2018-Jul-13 17:00N 38°02' E 023°35'0 0.0
2018-Jul-13 16:30N 38°02' E 023°35'0 0.0
2018-Jul-13 16:00N 38°02' E 023°35'0 0.0
2018-Jul-13 15:30N 38°02' E 023°35'0 0.0
2018-Jul-13 15:00N 38°02' E 023°35'0 0.0
2018-Jul-13 14:30N 38°02' E 023°35'0 0.0
2018-Jul-13 13:30N 38°02' E 023°35'0 0.0
2018-Jul-13 13:00N 38°02' E 023°35'0 0.0
2018-Jul-13 12:30N 38°02' E 023°35'0 0.0
2018-Jul-13 12:00N 38°02' E 023°35'0 0.0
2018-Jul-13 11:30N 38°02' E 023°35'0 0.0
2018-Jul-13 11:00N 38°02' E 023°35'0 0.0
2018-Jul-13 10:30N 38°02' E 023°35'0 0.0
2018-Jul-13 10:00N 38°02' E 023°35'0 0.0
2018-Jul-13 09:30N 38°02' E 023°35'0 0.0
2018-Jul-13 09:00N 38°02' E 023°35'0 0.0
2018-Jul-13 08:30N 38°02' E 023°35'0 0.0
2018-Jul-13 08:00N 38°02' E 023°35'0 0.0
2018-Jul-13 07:30N 38°02' E 023°35'0 0.0
2018-Jul-13 07:00N 38°02' E 023°35'0 0.0
2018-Jul-13 06:30N 38°02' E 023°35'0 0.0
2018-Jul-13 06:00N 38°02' E 023°35'0 0.0
2018-Jul-13 05:30N 38°02' E 023°35'0 0.0
2018-Jul-13 05:00N 38°02' E 023°35'0 0.0
2018-Jul-13 04:30N 38°02' E 023°35'0 0.0
2018-Jul-13 04:00N 38°02' E 023°35'0 0.0
2018-Jul-13 03:30N 38°02' E 023°35'0 0.0
2018-Jul-13 03:00N 38°02' E 023°35'0 0.0
2018-Jul-13 02:30N 38°02' E 023°35'0 0.0
2018-Jul-13 02:00N 38°02' E 023°35'0 0.0
2018-Jul-13 01:30N 38°02' E 023°35'0 0.0
2018-Jul-13 01:00N 38°02' E 023°35'0 0.0
2018-Jul-13 00:30N 38°02' E 023°35'0 0.0
2018-Jul-13 00:00N 38°02' E 023°35'0 0.0
2018-Jul-12 23:30N 38°02' E 023°35'0 0.0
2018-Jul-12 23:00N 38°02' E 023°35'0 0.0
2018-Jul-12 22:30N 38°02' E 023°35'0 0.0
2018-Jul-12 22:00N 38°02' E 023°35'0 0.0
2018-Jul-12 21:29N 38°02' E 023°35'0 0.0
2018-Jul-12 21:00N 38°02' E 023°35'0 0.0
2018-Jul-12 20:30N 38°02' E 023°35'0 0.0
2018-Jul-12 20:00N 38°02' E 023°35'0 0.0
2018-Jul-12 19:31N 38°02' E 023°35'0 0.0
2018-Jul-12 19:01N 38°02' E 023°35'0 0.0
2018-Jul-12 18:30N 38°02' E 023°35'0 0.0
2018-Jul-12 18:00N 38°02' E 023°35'0 0.0
2018-Jul-12 17:30N 38°02' E 023°35'0 0.0
2018-Jul-12 17:00N 38°02' E 023°35'0 0.0
2018-Jul-12 16:30N 38°02' E 023°35'0 0.0
2018-Jul-12 16:00N 38°02' E 023°35'0 0.0
2018-Jul-12 15:30N 38°02' E 023°35'0 0.0
2018-Jul-12 15:00N 38°02' E 023°35'0 0.0
2018-Jul-12 14:30N 38°02' E 023°35'0 0.0
2018-Jul-12 14:00N 38°02' E 023°35'0 0.0
2018-Jul-12 13:30N 38°02' E 023°35'0 0.0
2018-Jul-12 13:00N 38°02' E 023°35'0 0.0
2018-Jul-12 12:30N 38°02' E 023°35'0 0.0
2018-Jul-12 12:00N 38°02' E 023°35'0 0.0
2018-Jul-12 11:30N 38°02' E 023°35'0 0.0
2018-Jul-12 11:00N 38°02' E 023°35'0 0.0
2018-Jul-12 10:31N 38°02' E 023°35'0 0.0
2018-Jul-12 09:59N 38°02' E 023°35'0 0.0
2018-Jul-12 09:30N 38°02' E 023°35'0 0.0
2018-Jul-12 09:00N 38°02' E 023°35'0 0.0
2018-Jul-12 08:30N 38°02' E 023°35'0 0.0
2018-Jul-12 08:00N 38°02' E 023°35'0 0.0
2018-Jul-12 07:30N 38°02' E 023°35'0 0.0
2018-Jul-12 07:00N 38°02' E 023°35'0 0.0
2018-Jul-12 06:30N 38°02' E 023°35'0 0.0
2018-Jul-12 06:00N 38°02' E 023°35'0 0.0
2018-Jul-12 05:30N 38°02' E 023°35'0 0.0
2018-Jul-12 05:00N 38°02' E 023°35'0 0.0
2018-Jul-12 04:30N 38°02' E 023°35'0 0.0
2018-Jul-12 04:00N 38°02' E 023°35'0 0.0
2018-Jul-12 03:30N 38°02' E 023°35'0 0.0
2018-Jul-12 03:00N 38°02' E 023°35'0 0.0
2018-Jul-12 02:30N 38°02' E 023°35'0 0.0
2018-Jul-12 02:01N 38°02' E 023°35'0 0.0
2018-Jul-12 01:30N 38°02' E 023°35'0 0.0
2018-Jul-12 01:00N 38°02' E 023°35'0 0.0
2018-Jul-12 00:31N 38°02' E 023°35'0 0.0
2018-Jul-12 00:00N 38°02' E 023°35'0 0.0
2018-Jul-11 23:30N 38°02' E 023°35'0 0.0
2018-Jul-11 23:00N 38°02' E 023°35'0 0.0
2018-Jul-11 22:30N 38°02' E 023°35'0 0.0
2018-Jul-11 22:00N 38°02' E 023°35'0 0.0
2018-Jul-11 21:29N 38°02' E 023°35'0 0.0
2018-Jul-11 21:00N 38°02' E 023°35'0 0.0
2018-Jul-11 20:30N 38°02' E 023°35'0 0.0
2018-Jul-11 20:00N 38°02' E 023°35'0 0.0
2018-Jul-11 19:30N 38°02' E 023°35'0 0.0
2018-Jul-11 19:00N 38°02' E 023°35'0 0.0
2018-Jul-11 18:30N 38°02' E 023°35'0 0.0
2018-Jul-11 18:00N 38°02' E 023°35'0 0.0
2018-Jul-11 17:30N 38°02' E 023°35'0 0.0
2018-Jul-11 17:00N 38°02' E 023°35'0 0.0
2018-Jul-11 16:30N 38°02' E 023°35'0 0.0
2018-Jul-11 16:00N 38°02' E 023°35'0 0.0
2018-Jul-11 15:31N 38°02' E 023°35'0 0.0
2018-Jul-11 15:00N 38°02' E 023°35'0 0.0
2018-Jul-11 14:31N 38°02' E 023°35'0 0.0
2018-Jul-11 14:00N 38°02' E 023°35'0 0.0
2018-Jul-11 13:30N 38°02' E 023°35'0 0.0
2018-Jul-11 13:00N 38°02' E 023°35'0 0.0
2018-Jul-11 12:30N 38°02' E 023°35'0 0.0
2018-Jul-11 12:01N 38°02' E 023°35'0 0.0
2018-Jul-11 11:31N 38°02' E 023°35'0 0.0
2018-Jul-11 11:00N 38°02' E 023°35'0 0.0
2018-Jul-11 10:30N 38°02' E 023°35'0 0.0
2018-Jul-11 09:58N 38°02' E 023°35'0 0.0
2018-Jul-11 09:30N 38°02' E 023°35'0 0.0
2018-Jul-11 09:00N 38°02' E 023°35'0 0.0
2018-Jul-11 08:30N 38°02' E 023°35'0 0.0
2018-Jul-11 08:00N 38°02' E 023°35'3 6.6
2018-Jul-11 07:30N 37°59' E 023°33'3 6.7
2018-Jul-11 07:01N 37°57' E 023°36'4 8.9
2018-Jul-11 06:30N 37°53' E 023°38'4 8.8
2018-Jul-11 06:00N 37°49' E 023°40'4 8.8
2018-Jul-11 05:30N 37°45' E 023°43'  
Track history (hours):
 
Tides and Currents Weather Stations Pressure Air Temp Water Temp Dewpoint Dewpoint Depression Visibility Wind Speed Wind Dir Waves Ship Positions

Dimitrios

Last reported at 2018-Jul-15 08:23 UTC. Time now 2018-Jul-19 14:51 UTC.
Position N 37°39' E 023°46'.

Length 75 m; draft 4.6 m.

Type: Cargo ship. MMSI: 237006500.

Date/timePositionNaut miles runAvg speedWind from/ knotsBaromVisibWave heightAir tempDewpointWater temp
2018-Jul-15 08:23N 37°39' E 023°46'3 7.8
2018-Jul-15 08:00N 37°40' E 023°42'4 7.8
2018-Jul-15 07:30N 37°43' E 023°40'4 8.2
2018-Jul-15 07:00N 37°47' E 023°38'4 8.2
2018-Jul-15 06:30N 37°51' E 023°36'4 8.3
2018-Jul-15 06:00N 37°55' E 023°35'3 6.6
2018-Jul-15 05:30N 37°58' E 023°33'4 7.2
2018-Jul-15 05:00N 38°01' E 023°32'1 2.6
2018-Jul-15 04:30N 38°02' E 023°31'0 0.0
2018-Jul-15 04:00N 38°02' E 023°31'0 0.0
2018-Jul-15 03:30N 38°02' E 023°31'0 0.0
2018-Jul-15 03:00N 38°02' E 023°31'0 0.0
2018-Jul-15 02:30N 38°02' E 023°31'0 0.0
2018-Jul-15 02:00N 38°02' E 023°31'0 0.0
2018-Jul-15 01:30N 38°02' E 023°31'0 0.0
2018-Jul-15 01:00N 38°02' E 023°31'0 0.0
2018-Jul-15 00:30N 38°02' E 023°31'0 0.0
2018-Jul-15 00:00N 38°02' E 023°31'0 0.0
2018-Jul-14 23:30N 38°02' E 023°31'0 0.0
2018-Jul-14 23:00N 38°02' E 023°31'0 0.0
2018-Jul-14 22:30N 38°02' E 023°31'0 0.0
2018-Jul-14 22:00N 38°02' E 023°31'0 0.0
2018-Jul-14 21:30N 38°02' E 023°31'0 0.0
2018-Jul-14 21:00N 38°02' E 023°31'0 0.0
2018-Jul-14 20:30N 38°02' E 023°31'0 0.0
2018-Jul-14 20:00N 38°02' E 023°31'0 0.0
2018-Jul-14 19:30N 38°02' E 023°31'0 0.0
2018-Jul-14 19:00N 38°02' E 023°31'0 0.0
2018-Jul-14 18:30N 38°02' E 023°31'0 0.0
2018-Jul-14 18:00N 38°02' E 023°31'0 0.0
2018-Jul-14 17:30N 38°02' E 023°31'0 0.0
2018-Jul-14 17:00N 38°02' E 023°31'0 0.0
2018-Jul-14 16:30N 38°02' E 023°31'0 0.0
2018-Jul-14 16:00N 38°02' E 023°31'0 0.0
2018-Jul-14 15:30N 38°02' E 023°31'0 0.0
2018-Jul-14 15:00N 38°02' E 023°31'0 0.0
2018-Jul-14 14:29N 38°02' E 023°31'0 0.0
2018-Jul-14 13:30N 38°02' E 023°31'0 0.0
2018-Jul-14 12:59N 38°02' E 023°31'0 0.0
2018-Jul-14 12:30N 38°02' E 023°31'0 0.9
2018-Jul-14 12:00N 38°02' E 023°32'3 5.4
2018-Jul-14 11:30N 38°02' E 023°35'0 0.3
2018-Jul-14 10:09N 38°02' E 023°35'0 0.0
2018-Jul-14 09:58N 38°02' E 023°35'0 0.0
2018-Jul-14 09:30N 38°02' E 023°35'0 0.0
2018-Jul-14 08:55N 38°02' E 023°35'0 0.0
2018-Jul-14 08:29N 38°02' E 023°35'0 0.0
2018-Jul-14 08:00N 38°02' E 023°35'0 0.0
2018-Jul-14 07:29N 38°02' E 023°35'0 0.0
2018-Jul-14 07:00N 38°02' E 023°35'0 0.0
2018-Jul-14 06:30N 38°02' E 023°35'0 0.0
2018-Jul-14 05:59N 38°02' E 023°35'0 0.0
2018-Jul-14 05:30N 38°02' E 023°35'0 0.0
2018-Jul-14 05:00N 38°02' E 023°35'0 0.0
2018-Jul-14 04:30N 38°02' E 023°35'0 0.0
2018-Jul-14 04:00N 38°02' E 023°35'0 0.0
2018-Jul-14 03:30N 38°02' E 023°35'0 0.0
2018-Jul-14 03:01N 38°02' E 023°35'0 0.0
2018-Jul-14 02:30N 38°02' E 023°35'0 0.0
2018-Jul-14 02:00N 38°02' E 023°35'0 0.0
2018-Jul-14 01:30N 38°02' E 023°35'0 0.0
2018-Jul-14 01:00N 38°02' E 023°35'0 0.0
2018-Jul-14 00:30N 38°02' E 023°35'0 0.0
2018-Jul-14 00:00N 38°02' E 023°35'0 0.0
2018-Jul-13 23:30N 38°02' E 023°35'0 0.0
2018-Jul-13 23:00N 38°02' E 023°35'0 0.0
2018-Jul-13 22:30N 38°02' E 023°35'0 0.0
2018-Jul-13 22:00N 38°02' E 023°35'0 0.0
2018-Jul-13 21:30N 38°02' E 023°35'0 0.0
2018-Jul-13 21:00N 38°02' E 023°35'0 0.0
2018-Jul-13 20:30N 38°02' E 023°35'0 0.0
2018-Jul-13 20:00N 38°02' E 023°35'0 0.0
2018-Jul-13 19:30N 38°02' E 023°35'0 0.0
2018-Jul-13 18:59N 38°02' E 023°35'0 0.0
2018-Jul-13 18:30N 38°02' E 023°35'0 0.0
2018-Jul-13 18:00N 38°02' E 023°35'0 0.0
2018-Jul-13 17:30N 38°02' E 023°35'0 0.0
2018-Jul-13 17:00N 38°02' E 023°35'0 0.0
2018-Jul-13 16:30N 38°02' E 023°35'0 0.0
2018-Jul-13 16:00N 38°02' E 023°35'0 0.0
2018-Jul-13 15:30N 38°02' E 023°35'0 0.0
2018-Jul-13 15:00N 38°02' E 023°35'0 0.0
2018-Jul-13 14:30N 38°02' E 023°35'0 0.0
2018-Jul-13 13:30N 38°02' E 023°35'0 0.0
2018-Jul-13 13:00N 38°02' E 023°35'0 0.0
2018-Jul-13 12:30N 38°02' E 023°35'0 0.0
2018-Jul-13 12:00N 38°02' E 023°35'0 0.0
2018-Jul-13 11:30N 38°02' E 023°35'0 0.0
2018-Jul-13 11:00N 38°02' E 023°35'0 0.0
2018-Jul-13 10:30N 38°02' E 023°35'0 0.0
2018-Jul-13 10:00N 38°02' E 023°35'0 0.0
2018-Jul-13 09:30N 38°02' E 023°35'0 0.0
2018-Jul-13 09:00N 38°02' E 023°35'0 0.0
2018-Jul-13 08:30N 38°02' E 023°35'0 0.0
2018-Jul-13 08:00N 38°02' E 023°35'0 0.0
2018-Jul-13 07:30N 38°02' E 023°35'0 0.0
2018-Jul-13 07:00N 38°02' E 023°35'0 0.0
2018-Jul-13 06:30N 38°02' E 023°35'0 0.0
2018-Jul-13 06:00N 38°02' E 023°35'0 0.0
2018-Jul-13 05:30N 38°02' E 023°35'0 0.0
2018-Jul-13 05:00N 38°02' E 023°35'0 0.0
2018-Jul-13 04:30N 38°02' E 023°35'0 0.0
2018-Jul-13 04:00N 38°02' E 023°35'0 0.0
2018-Jul-13 03:30N 38°02' E 023°35'0 0.0
2018-Jul-13 03:00N 38°02' E 023°35'0 0.0
2018-Jul-13 02:30N 38°02' E 023°35'0 0.0
2018-Jul-13 02:00N 38°02' E 023°35'0 0.0
2018-Jul-13 01:30N 38°02' E 023°35'0 0.0
2018-Jul-13 01:00N 38°02' E 023°35'0 0.0
2018-Jul-13 00:30N 38°02' E 023°35'0 0.0
2018-Jul-13 00:00N 38°02' E 023°35'0 0.0
2018-Jul-12 23:30N 38°02' E 023°35'0 0.0
2018-Jul-12 23:00N 38°02' E 023°35'0 0.0
2018-Jul-12 22:30N 38°02' E 023°35'0 0.0
2018-Jul-12 22:00N 38°02' E 023°35'0 0.0
2018-Jul-12 21:29N 38°02' E 023°35'0 0.0
2018-Jul-12 21:00N 38°02' E 023°35'0 0.0
2018-Jul-12 20:30N 38°02' E 023°35'0 0.0
2018-Jul-12 20:00N 38°02' E 023°35'0 0.0
2018-Jul-12 19:31N 38°02' E 023°35'0 0.0
2018-Jul-12 19:01N 38°02' E 023°35'0 0.0
2018-Jul-12 18:30N 38°02' E 023°35'0 0.0
2018-Jul-12 18:00N 38°02' E 023°35'0 0.0
2018-Jul-12 17:30N 38°02' E 023°35'0 0.0
2018-Jul-12 17:00N 38°02' E 023°35'0 0.0
2018-Jul-12 16:30N 38°02' E 023°35'0 0.0
2018-Jul-12 16:00N 38°02' E 023°35'0 0.0
2018-Jul-12 15:30N 38°02' E 023°35'0 0.0
2018-Jul-12 15:00N 38°02' E 023°35'0 0.0
2018-Jul-12 14:30N 38°02' E 023°35'0 0.0
2018-Jul-12 14:00N 38°02' E 023°35'0 0.0
2018-Jul-12 13:30N 38°02' E 023°35'0 0.0
2018-Jul-12 13:00N 38°02' E 023°35'0 0.0
2018-Jul-12 12:30N 38°02' E 023°35'0 0.0
2018-Jul-12 12:00N 38°02' E 023°35'0 0.0
2018-Jul-12 11:30N 38°02' E 023°35'0 0.0
2018-Jul-12 11:00N 38°02' E 023°35'0 0.0
2018-Jul-12 10:31N 38°02' E 023°35'0 0.0
2018-Jul-12 09:59N 38°02' E 023°35'0 0.0
2018-Jul-12 09:30N 38°02' E 023°35'0 0.0
2018-Jul-12 09:00N 38°02' E 023°35'0 0.0
2018-Jul-12 08:30N 38°02' E 023°35'0 0.0
2018-Jul-12 08:00N 38°02' E 023°35'0 0.0
2018-Jul-12 07:30N 38°02' E 023°35'0 0.0
2018-Jul-12 07:00N 38°02' E 023°35'0 0.0
2018-Jul-12 06:30N 38°02' E 023°35'0 0.0
2018-Jul-12 06:00N 38°02' E 023°35'0 0.0
2018-Jul-12 05:30N 38°02' E 023°35'0 0.0
2018-Jul-12 05:00N 38°02' E 023°35'0 0.0
2018-Jul-12 04:30N 38°02' E 023°35'0 0.0
2018-Jul-12 04:00N 38°02' E 023°35'0 0.0
2018-Jul-12 03:30N 38°02' E 023°35'0 0.0
2018-Jul-12 03:00N 38°02' E 023°35'0 0.0
2018-Jul-12 02:30N 38°02' E 023°35'0 0.0
2018-Jul-12 02:01N 38°02' E 023°35'0 0.0
2018-Jul-12 01:30N 38°02' E 023°35'0 0.0
2018-Jul-12 01:00N 38°02' E 023°35'0 0.0
2018-Jul-12 00:31N 38°02' E 023°35'0 0.0
2018-Jul-12 00:00N 38°02' E 023°35'0 0.0
2018-Jul-11 23:30N 38°02' E 023°35'0 0.0
2018-Jul-11 23:00N 38°02' E 023°35'0 0.0
2018-Jul-11 22:30N 38°02' E 023°35'0 0.0
2018-Jul-11 22:00N 38°02' E 023°35'0 0.0
2018-Jul-11 21:29N 38°02' E 023°35'0 0.0
2018-Jul-11 21:00N 38°02' E 023°35'0 0.0
2018-Jul-11 20:30N 38°02' E 023°35'0 0.0
2018-Jul-11 20:00N 38°02' E 023°35'0 0.0
2018-Jul-11 19:30N 38°02' E 023°35'0 0.0
2018-Jul-11 19:00N 38°02' E 023°35'0 0.0
2018-Jul-11 18:30N 38°02' E 023°35'0 0.0
2018-Jul-11 18:00N 38°02' E 023°35'0 0.0
2018-Jul-11 17:30N 38°02' E 023°35'0 0.0
2018-Jul-11 17:00N 38°02' E 023°35'0 0.0
2018-Jul-11 16:30N 38°02' E 023°35'0 0.0
2018-Jul-11 16:00N 38°02' E 023°35'0 0.0
2018-Jul-11 15:31N 38°02' E 023°35'0 0.0
2018-Jul-11 15:00N 38°02' E 023°35'0 0.0
2018-Jul-11 14:31N 38°02' E 023°35'0 0.0
2018-Jul-11 14:00N 38°02' E 023°35'0 0.0
2018-Jul-11 13:30N 38°02' E 023°35'0 0.0
2018-Jul-11 13:00N 38°02' E 023°35'0 0.0
2018-Jul-11 12:30N 38°02' E 023°35'0 0.0
2018-Jul-11 12:01N 38°02' E 023°35'0 0.0
2018-Jul-11 11:31N 38°02' E 023°35'0 0.0
2018-Jul-11 11:00N 38°02' E 023°35'0 0.0
2018-Jul-11 10:30N 38°02' E 023°35'0 0.0
2018-Jul-11 09:58N 38°02' E 023°35'0 0.0
2018-Jul-11 09:30N 38°02' E 023°35'0 0.0
2018-Jul-11 09:00N 38°02' E 023°35'0 0.0
2018-Jul-11 08:30N 38°02' E 023°35'0 0.0
2018-Jul-11 08:00N 38°02' E 023°35'3 6.6
2018-Jul-11 07:30N 37°59' E 023°33'3 6.7
2018-Jul-11 07:01N 37°57' E 023°36'4 8.9
2018-Jul-11 06:30N 37°53' E 023°38'4 8.8
2018-Jul-11 06:00N 37°49' E 023°40'4 8.8
2018-Jul-11 05:30N 37°45' E 023°43'  

Dump ship's entire track history